createdAt,value
2022-10-29T00:00:59.438Z,1015.08
2022-10-29T00:01:59.473Z,1015.05
2022-10-29T00:02:59.467Z,1015.08
2022-10-29T00:03:59.375Z,1015.16
2022-10-29T00:04:59.362Z,1015.20
2022-10-29T00:05:59.383Z,1015.21
2022-10-29T00:06:59.338Z,1015.22
2022-10-29T00:07:59.403Z,1015.24
2022-10-29T00:08:59.306Z,1015.22
2022-10-29T00:09:59.311Z,1015.26
2022-10-29T00:10:59.301Z,1015.24
2022-10-29T00:11:59.275Z,1015.24
2022-10-29T00:12:59.263Z,1015.24
2022-10-29T00:13:59.255Z,1015.18
2022-10-29T00:14:59.259Z,1015.23
2022-10-29T00:15:59.233Z,1015.20
2022-10-29T00:16:59.219Z,1015.18
2022-10-29T00:17:59.357Z,1015.21
2022-10-29T00:18:59.202Z,1015.22
2022-10-29T00:19:59.226Z,1015.20
2022-10-29T00:20:59.186Z,1015.20
2022-10-29T00:21:59.182Z,1015.20
2022-10-29T00:22:59.339Z,1015.23
2022-10-29T00:23:59.143Z,1015.22
2022-10-29T00:24:59.131Z,1015.21
2022-10-29T00:25:59.130Z,1015.21
2022-10-29T00:26:59.108Z,1015.23
2022-10-29T00:27:59.106Z,1015.23
2022-10-29T00:28:59.086Z,1015.24
2022-10-29T00:29:59.088Z,1015.26
2022-10-29T00:30:59.066Z,1015.29
2022-10-29T00:31:59.222Z,1015.25
2022-10-29T00:32:59.100Z,1015.27
2022-10-29T00:33:59.032Z,1015.30
2022-10-29T00:34:59.046Z,1015.33
2022-10-29T00:35:59.012Z,1015.36
2022-10-29T00:36:58.999Z,1015.40
2022-10-29T00:37:59.059Z,1015.40
2022-10-29T00:38:58.975Z,1015.43
2022-10-29T00:39:58.967Z,1015.40
2022-10-29T00:40:58.977Z,1015.50
2022-10-29T00:41:58.948Z,1015.50
2022-10-29T00:42:58.934Z,1015.52
2022-10-29T00:43:58.924Z,1015.57
2022-10-29T00:44:58.914Z,1015.59
2022-10-29T00:45:58.912Z,1015.63
2022-10-29T00:46:58.889Z,1015.69
2022-10-29T00:47:59.174Z,1015.63
2022-10-29T00:48:58.868Z,1015.66
2022-10-29T00:49:58.870Z,1015.65
2022-10-29T00:50:58.843Z,1015.62
2022-10-29T00:51:58.834Z,1015.59
2022-10-29T00:52:58.824Z,1015.60
2022-10-29T00:53:58.839Z,1015.53
2022-10-29T00:54:58.828Z,1015.51
2022-10-29T00:55:58.792Z,1015.51
2022-10-29T00:56:58.778Z,1015.53
2022-10-29T00:57:59.232Z,1015.58
2022-10-29T00:58:58.758Z,1015.61
2022-10-29T00:59:58.760Z,1015.57
2022-10-29T01:00:58.735Z,1015.59
2022-10-29T01:01:58.838Z,1015.57
2022-10-29T01:02:59.273Z,1015.55
2022-10-29T01:03:58.725Z,1015.54
2022-10-29T01:04:58.718Z,1015.51
2022-10-29T01:05:58.681Z,1015.46
2022-10-29T01:06:58.677Z,1015.46
2022-10-29T01:07:58.659Z,1015.43
2022-10-29T01:08:58.647Z,1015.40
2022-10-29T01:09:58.667Z,1015.35
2022-10-29T01:10:58.631Z,1015.37
2022-10-29T01:11:58.666Z,1015.35
2022-10-29T01:12:58.861Z,1015.36
2022-10-29T01:13:58.729Z,1015.45
2022-10-29T01:14:58.667Z,1015.49
2022-10-29T01:15:58.648Z,1015.48
2022-10-29T01:16:58.559Z,1015.52
2022-10-29T01:17:58.946Z,1015.52
2022-10-29T01:18:58.558Z,1015.52
2022-10-29T01:19:58.541Z,1015.52
2022-10-29T01:20:58.514Z,1015.49
2022-10-29T01:21:58.507Z,1015.45
2022-10-29T01:22:58.494Z,1015.50
2022-10-29T01:23:58.494Z,1015.49
2022-10-29T01:24:58.469Z,1015.49
2022-10-29T01:25:58.480Z,1015.52
2022-10-29T01:26:58.448Z,1015.52
2022-10-29T01:27:58.963Z,1015.51
2022-10-29T01:28:58.443Z,1015.54
2022-10-29T01:29:58.417Z,1015.55
2022-10-29T01:30:58.405Z,1015.53
2022-10-29T01:31:58.400Z,1015.49
2022-10-29T01:32:58.719Z,1015.51
2022-10-29T01:33:58.398Z,1015.44
2022-10-29T01:34:58.363Z,1015.48
2022-10-29T01:35:58.351Z,1015.44
2022-10-29T01:36:58.339Z,1015.46
2022-10-29T01:37:58.329Z,1015.46
2022-10-29T01:38:58.382Z,1015.43
2022-10-29T01:39:58.315Z,1015.44
2022-10-29T01:40:58.295Z,1015.43
2022-10-29T01:41:58.302Z,1015.43
2022-10-29T01:42:58.558Z,1015.47
2022-10-29T01:43:58.266Z,1015.47
2022-10-29T01:44:58.260Z,1015.46
2022-10-29T01:45:58.242Z,1015.54
2022-10-29T01:46:58.294Z,1015.52
2022-10-29T01:47:58.710Z,1015.58
2022-10-29T01:48:58.205Z,1015.52
2022-10-29T01:49:58.209Z,1015.56
2022-10-29T01:50:58.187Z,1015.55
2022-10-29T01:51:58.176Z,1015.63
2022-10-29T01:52:58.162Z,1015.61
2022-10-29T01:53:58.154Z,1015.60
2022-10-29T01:54:58.157Z,1015.61
2022-10-29T01:55:58.132Z,1015.62
2022-10-29T01:56:58.128Z,1015.62
2022-10-29T01:57:58.564Z,1015.61
2022-10-29T01:58:58.098Z,1015.62
2022-10-29T01:59:58.237Z,1015.63
2022-10-29T02:00:58.154Z,1015.66
2022-10-29T02:01:58.094Z,1015.66
2022-10-29T02:02:58.335Z,1015.71
2022-10-29T02:03:58.042Z,1015.69
2022-10-29T02:04:58.045Z,1015.69
2022-10-29T02:05:58.023Z,1015.70
2022-10-29T02:06:58.009Z,1015.71
2022-10-29T02:07:57.999Z,1015.69
2022-10-29T02:08:57.985Z,1015.72
2022-10-29T02:09:57.990Z,1015.74
2022-10-29T02:10:58.083Z,1015.75
2022-10-29T02:11:57.957Z,1015.76
2022-10-29T02:12:58.467Z,1015.73
2022-10-29T02:13:57.955Z,1015.75
2022-10-29T02:14:57.932Z,1015.75
2022-10-29T02:15:57.977Z,1015.74
2022-10-29T02:16:57.950Z,1015.74
2022-10-29T02:17:58.226Z,1015.81
2022-10-29T02:18:57.885Z,1015.77
2022-10-29T02:19:57.877Z,1015.78
2022-10-29T02:20:57.909Z,1015.77
2022-10-29T02:21:57.847Z,1015.79
2022-10-29T02:23:49.080Z,1015.85
2022-10-29T02:24:49.102Z,1015.83
2022-10-29T02:25:49.187Z,1015.87
2022-10-29T02:26:49.040Z,1015.92
2022-10-29T02:27:49.034Z,1015.90
2022-10-29T02:28:49.021Z,1015.95
2022-10-29T02:29:49.037Z,1015.99
2022-10-29T02:30:48.999Z,1016.00
2022-10-29T02:31:48.989Z,1015.97
2022-10-29T02:32:48.977Z,1015.95
2022-10-29T02:33:48.966Z,1016.01
2022-10-29T02:34:48.970Z,1016.02
2022-10-29T02:35:56.702Z,1016.02
2022-10-29T02:36:48.933Z,1016.01
2022-10-29T02:37:48.924Z,1016.01
2022-10-29T02:38:48.911Z,1016.07
2022-10-29T02:39:48.941Z,1016.09
2022-10-29T02:40:48.893Z,1016.06
2022-10-29T02:41:48.881Z,1016.09
2022-10-29T02:42:48.914Z,1016.08
2022-10-29T02:43:48.880Z,1016.07
2022-10-29T02:44:48.867Z,1016.08
2022-10-29T02:45:48.853Z,1016.10
2022-10-29T02:46:48.824Z,1016.17
2022-10-29T02:47:48.814Z,1016.13
2022-10-29T02:48:48.803Z,1016.15
2022-10-29T02:49:48.806Z,1016.13
2022-10-29T02:50:48.780Z,1016.15
2022-10-29T02:51:48.771Z,1016.11
2022-10-29T02:52:48.761Z,1016.10
2022-10-29T02:53:48.748Z,1016.10
2022-10-29T02:54:48.747Z,1016.16
2022-10-29T02:55:48.729Z,1016.20
2022-10-29T02:56:48.716Z,1016.23
2022-10-29T02:57:48.710Z,1016.21
2022-10-29T02:58:48.692Z,1016.21
2022-10-29T02:59:48.696Z,1016.17
2022-10-29T03:00:48.673Z,1016.16
2022-10-29T03:01:48.821Z,1016.15
2022-10-29T03:02:48.714Z,1016.10
2022-10-29T03:03:48.639Z,1016.12
2022-10-29T03:04:48.641Z,1016.09
2022-10-29T03:05:49.212Z,1016.15
2022-10-29T03:06:48.605Z,1016.05
2022-10-29T03:07:48.597Z,1016.07
2022-10-29T03:08:48.586Z,1016.12
2022-10-29T03:09:48.588Z,1016.07
2022-10-29T03:10:48.563Z,1016.08
2022-10-29T03:11:48.553Z,1016.09
2022-10-29T03:12:48.558Z,1016.14
2022-10-29T03:13:48.534Z,1016.14
2022-10-29T03:14:48.529Z,1016.13
2022-10-29T03:15:48.513Z,1016.14
2022-10-29T03:16:48.703Z,1016.13
2022-10-29T03:17:48.525Z,1016.10
2022-10-29T03:18:48.499Z,1016.09
2022-10-29T03:19:48.476Z,1016.10
2022-10-29T03:20:48.456Z,1016.10
2022-10-29T03:21:48.444Z,1016.13
2022-10-29T03:22:48.432Z,1016.07
2022-10-29T03:23:48.455Z,1016.06
2022-10-29T03:24:48.421Z,1016.03
2022-10-29T03:25:52.903Z,1015.97
2022-10-29T03:26:49.386Z,1015.97
2022-10-29T03:27:48.392Z,1015.98
2022-10-29T03:28:48.381Z,1016.02
2022-10-29T03:29:48.359Z,1015.96
2022-10-29T03:30:48.346Z,1015.97
2022-10-29T03:31:48.333Z,1015.96
2022-10-29T03:32:48.344Z,1015.98
2022-10-29T03:33:48.340Z,1016.00
2022-10-29T03:34:48.301Z,1015.99
2022-10-29T03:35:48.351Z,1016.03
2022-10-29T03:36:48.280Z,1016.04
2022-10-29T03:37:48.280Z,1016.08
2022-10-29T03:38:48.271Z,1016.09
2022-10-29T03:39:48.247Z,1016.13
2022-10-29T03:40:48.239Z,1016.12
2022-10-29T03:41:48.230Z,1016.13
2022-10-29T03:42:48.215Z,1016.18
2022-10-29T03:43:48.332Z,1016.16
2022-10-29T03:44:48.196Z,1016.16
2022-10-29T03:45:48.182Z,1016.19
2022-10-29T03:46:48.172Z,1016.18
2022-10-29T03:47:48.163Z,1016.19
2022-10-29T03:48:48.161Z,1016.22
2022-10-29T03:49:48.161Z,1016.21
2022-10-29T03:50:48.139Z,1016.24
2022-10-29T03:51:48.121Z,1016.21
2022-10-29T03:52:48.103Z,1016.24
2022-10-29T03:53:48.109Z,1016.23
2022-10-29T03:54:48.084Z,1016.23
2022-10-29T03:55:48.074Z,1016.20
2022-10-29T03:56:48.061Z,1016.18
2022-10-29T03:57:48.053Z,1016.17
2022-10-29T03:58:48.072Z,1016.13
2022-10-29T03:59:49.984Z,1016.16
2022-10-29T04:00:48.019Z,1016.20
2022-10-29T04:01:48.190Z,1016.22
2022-10-29T04:02:48.047Z,1016.23
2022-10-29T04:03:48.019Z,1016.23
2022-10-29T04:04:47.978Z,1016.24
2022-10-29T04:05:47.981Z,1016.23
2022-10-29T04:06:47.955Z,1016.27
2022-10-29T04:07:47.943Z,1016.27
2022-10-29T04:08:47.943Z,1016.29
2022-10-29T04:09:47.922Z,1016.34
2022-10-29T04:10:47.913Z,1016.33
2022-10-29T04:11:47.898Z,1016.34
2022-10-29T04:12:47.895Z,1016.32
2022-10-29T04:13:47.886Z,1016.31
2022-10-29T04:14:47.953Z,1016.31
2022-10-29T04:15:47.887Z,1016.29
2022-10-29T04:16:47.847Z,1016.34
2022-10-29T04:17:47.833Z,1016.31
2022-10-29T04:18:47.831Z,1016.31
2022-10-29T04:19:47.813Z,1016.31
2022-10-29T04:22:22.898Z,1016.32
2022-10-29T04:27:07.900Z,1016.33
2022-10-29T04:27:08.090Z,1016.30
2022-10-29T04:28:42.006Z,1016.36
2022-10-29T04:28:48.723Z,1016.36
2022-10-29T04:29:47.706Z,1016.33
2022-10-29T04:30:47.706Z,1016.31
2022-10-29T04:31:47.680Z,1016.35
2022-10-29T04:32:47.678Z,1016.30
2022-10-29T04:33:47.672Z,1016.27
2022-10-29T04:34:47.649Z,1016.27
2022-10-29T04:35:47.644Z,1016.30
2022-10-29T04:36:47.631Z,1016.27
2022-10-29T04:37:47.634Z,1016.24
2022-10-29T04:38:47.627Z,1016.24
2022-10-29T04:39:47.595Z,1016.18
2022-10-29T04:40:47.582Z,1016.17
2022-10-29T04:41:47.585Z,1016.23
2022-10-29T04:42:47.561Z,1016.28
2022-10-29T04:43:47.558Z,1016.23
2022-10-29T04:44:47.540Z,1016.18
2022-10-29T04:45:47.531Z,1016.18
2022-10-29T04:46:47.518Z,1016.13
2022-10-29T04:47:47.513Z,1016.14
2022-10-29T04:48:47.582Z,1016.14
2022-10-29T04:49:47.483Z,1016.17
2022-10-29T04:50:47.478Z,1016.15
2022-10-29T04:51:47.461Z,1016.15
2022-10-29T04:52:47.451Z,1016.15
2022-10-29T04:53:47.472Z,1016.14
2022-10-29T04:54:47.432Z,1016.09
2022-10-29T04:55:47.419Z,1016.08
2022-10-29T04:56:47.410Z,1016.09
2022-10-29T04:57:47.396Z,1016.15
2022-10-29T04:58:47.402Z,1016.21
2022-10-29T04:59:47.374Z,1016.24
2022-10-29T05:00:47.435Z,1016.31
2022-10-29T05:01:47.360Z,1016.36
2022-10-29T05:02:47.343Z,1016.38
2022-10-29T05:03:47.345Z,1016.36
2022-10-29T05:04:47.323Z,1016.39
2022-10-29T05:05:47.309Z,1016.38
2022-10-29T05:06:47.299Z,1016.34
2022-10-29T05:07:47.287Z,1016.36
2022-10-29T05:08:47.306Z,1016.33
2022-10-29T05:09:47.291Z,1016.40
2022-10-29T05:10:47.259Z,1016.35
2022-10-29T05:11:47.247Z,1016.42
2022-10-29T05:12:47.240Z,1016.37
2022-10-29T05:13:47.231Z,1016.38
2022-10-29T05:14:47.211Z,1016.41
2022-10-29T05:15:52.749Z,1016.39
2022-10-29T05:16:48.188Z,1016.41
2022-10-29T05:17:47.182Z,1016.35
2022-10-29T05:18:47.184Z,1016.40
2022-10-29T05:19:47.156Z,1016.41
2022-10-29T05:20:47.146Z,1016.44
2022-10-29T05:21:47.135Z,1016.51
2022-10-29T05:22:47.126Z,1016.46
2022-10-29T05:23:47.125Z,1016.47
2022-10-29T05:24:47.110Z,1016.46
2022-10-29T05:25:47.110Z,1016.49
2022-10-29T05:26:47.085Z,1016.48
2022-10-29T05:27:47.071Z,1016.44
2022-10-29T05:28:47.074Z,1016.46
2022-10-29T05:29:47.048Z,1016.44
2022-10-29T05:30:47.041Z,1016.50
2022-10-29T05:31:47.027Z,1016.50
2022-10-29T05:32:47.017Z,1016.49
2022-10-29T05:33:49.037Z,1016.51
2022-10-29T05:34:46.996Z,1016.55
2022-10-29T05:35:47.033Z,1016.55
2022-10-29T05:36:46.971Z,1016.57
2022-10-29T05:37:46.962Z,1016.55
2022-10-29T05:38:46.974Z,1016.55
2022-10-29T05:39:46.940Z,1016.48
2022-10-29T05:40:46.930Z,1016.50
2022-10-29T05:41:46.934Z,1016.45
2022-10-29T05:42:47.457Z,1016.41
2022-10-29T05:43:46.906Z,1016.41
2022-10-29T05:44:46.888Z,1016.41
2022-10-29T05:45:46.873Z,1016.35
2022-10-29T05:46:46.864Z,1016.36
2022-10-29T05:47:46.873Z,1016.34
2022-10-29T05:48:46.858Z,1016.34
2022-10-29T05:49:46.831Z,1016.36
2022-10-29T05:50:46.823Z,1016.32
2022-10-29T05:51:46.812Z,1016.33
2022-10-29T05:52:46.797Z,1016.31
2022-10-29T05:53:46.863Z,1016.27
2022-10-29T05:54:46.780Z,1016.24
2022-10-29T05:55:46.769Z,1016.21
2022-10-29T05:56:46.761Z,1016.22
2022-10-29T05:57:46.759Z,1016.24
2022-10-29T05:58:46.782Z,1016.20
2022-10-29T05:59:46.722Z,1016.20
2022-10-29T06:00:46.717Z,1016.21
2022-10-29T06:01:46.867Z,1016.22
2022-10-29T06:02:46.732Z,1016.23
2022-10-29T06:03:46.768Z,1016.30
2022-10-29T06:04:46.671Z,1016.30
2022-10-29T06:05:46.687Z,1016.33
2022-10-29T06:06:46.730Z,1016.40
2022-10-29T06:07:46.633Z,1016.39
2022-10-29T06:08:46.638Z,1016.41
2022-10-29T06:09:46.617Z,1016.40
2022-10-29T06:10:46.636Z,1016.39
2022-10-29T06:11:46.589Z,1016.44
2022-10-29T06:12:46.579Z,1016.46
2022-10-29T06:13:46.598Z,1016.45
2022-10-29T06:14:46.569Z,1016.47
2022-10-29T06:15:46.553Z,1016.48
2022-10-29T06:16:46.537Z,1016.44
2022-10-29T06:17:46.536Z,1016.44
2022-10-29T06:18:46.532Z,1016.44
2022-10-29T06:19:46.511Z,1016.40
2022-10-29T06:20:46.492Z,1016.37
2022-10-29T06:21:46.480Z,1016.38
2022-10-29T06:22:46.472Z,1016.40
2022-10-29T06:23:46.470Z,1016.40
2022-10-29T06:24:46.448Z,1016.47
2022-10-29T06:25:46.439Z,1016.45
2022-10-29T06:26:46.426Z,1016.43
2022-10-29T06:27:46.469Z,1016.47
2022-10-29T06:28:46.489Z,1016.56
2022-10-29T06:29:46.460Z,1016.56
2022-10-29T06:30:46.430Z,1016.59
2022-10-29T06:31:46.377Z,1016.62
2022-10-29T06:32:46.362Z,1016.58
2022-10-29T06:33:46.374Z,1016.58
2022-10-29T06:34:46.357Z,1016.58
2022-10-29T06:35:46.337Z,1016.62
2022-10-29T06:36:46.354Z,1016.67
2022-10-29T06:37:46.313Z,1016.68
2022-10-29T06:38:46.327Z,1016.68
2022-10-29T06:39:46.285Z,1016.73
2022-10-29T06:40:46.276Z,1016.71
2022-10-29T06:41:46.306Z,1016.67
2022-10-29T06:42:46.261Z,1016.67
2022-10-29T06:43:46.271Z,1016.72
2022-10-29T06:44:46.238Z,1016.74
2022-10-29T06:45:46.278Z,1016.72
2022-10-29T06:46:46.220Z,1016.74
2022-10-29T06:47:46.198Z,1016.74
2022-10-29T06:48:46.241Z,1016.66
2022-10-29T06:49:46.184Z,1016.66
2022-10-29T06:50:46.182Z,1016.70
2022-10-29T06:51:46.161Z,1016.73
2022-10-29T06:52:46.198Z,1016.69
2022-10-29T06:53:46.157Z,1016.68
2022-10-29T06:54:46.141Z,1016.70
2022-10-29T06:55:46.118Z,1016.73
2022-10-29T06:56:46.102Z,1016.69
2022-10-29T06:57:46.095Z,1016.76
2022-10-29T06:58:46.092Z,1016.75
2022-10-29T06:59:46.073Z,1016.79
2022-10-29T07:00:46.195Z,1016.78
2022-10-29T07:01:46.094Z,1016.72
2022-10-29T07:02:46.041Z,1016.77
2022-10-29T07:03:46.044Z,1016.79
2022-10-29T07:04:46.021Z,1016.77
2022-10-29T07:05:46.012Z,1016.82
2022-10-29T07:06:46.018Z,1016.81
2022-10-29T07:07:45.995Z,1016.84
2022-10-29T07:08:45.997Z,1016.84
2022-10-29T07:09:45.985Z,1016.80
2022-10-29T07:10:45.962Z,1016.79
2022-10-29T07:11:45.966Z,1016.73
2022-10-29T07:12:45.957Z,1016.78
2022-10-29T07:13:45.970Z,1016.80
2022-10-29T07:14:45.927Z,1016.79
2022-10-29T07:15:45.900Z,1016.75
2022-10-29T07:16:45.901Z,1016.74
2022-10-29T07:17:45.904Z,1016.74
2022-10-29T07:18:45.882Z,1016.77
2022-10-29T07:19:45.861Z,1016.69
2022-10-29T07:20:45.858Z,1016.67
2022-10-29T07:21:45.834Z,1016.73
2022-10-29T07:22:45.827Z,1016.79
2022-10-29T07:23:45.823Z,1016.77
2022-10-29T07:24:45.803Z,1016.81
2022-10-29T07:25:45.819Z,1016.85
2022-10-29T07:26:45.779Z,1016.85
2022-10-29T07:27:45.906Z,1016.80
2022-10-29T07:28:45.804Z,1016.77
2022-10-29T07:29:45.755Z,1016.85
2022-10-29T07:30:45.749Z,1016.86
2022-10-29T07:31:45.727Z,1016.83
2022-10-29T07:32:45.777Z,1016.88
2022-10-29T07:33:45.731Z,1016.86
2022-10-29T07:34:45.697Z,1016.86
2022-10-29T07:35:45.683Z,1016.92
2022-10-29T07:36:45.672Z,1016.95
2022-10-29T07:37:45.658Z,1017.01
2022-10-29T07:38:45.734Z,1017.02
2022-10-29T07:39:45.641Z,1017.02
2022-10-29T07:40:45.634Z,1017.06
2022-10-29T07:41:45.609Z,1017.04
2022-10-29T07:42:45.608Z,1017.06
2022-10-29T07:43:45.600Z,1017.04
2022-10-29T07:44:45.582Z,1017.02
2022-10-29T07:45:45.565Z,1017.04
2022-10-29T07:46:45.555Z,1017.06
2022-10-29T07:47:45.544Z,1017.01
2022-10-29T07:48:45.546Z,1017.00
2022-10-29T07:49:45.539Z,1017.05
2022-10-29T07:50:45.511Z,1017.03
2022-10-29T07:51:45.498Z,1017.04
2022-10-29T07:52:45.490Z,1017.00
2022-10-29T07:53:45.488Z,1017.06
2022-10-29T07:54:45.469Z,1017.07
2022-10-29T07:55:45.458Z,1017.09
2022-10-29T07:56:47.741Z,1017.06
2022-10-29T07:57:45.432Z,1017.08
2022-10-29T07:58:45.514Z,1017.13
2022-10-29T07:59:45.412Z,1017.16
2022-10-29T08:00:45.454Z,1017.17
2022-10-29T08:01:45.507Z,1017.18
2022-10-29T08:02:45.385Z,1017.17
2022-10-29T08:03:45.378Z,1017.15
2022-10-29T08:04:45.360Z,1017.14
2022-10-29T08:05:45.372Z,1017.19
2022-10-29T08:06:45.357Z,1017.10
2022-10-29T08:07:45.328Z,1017.12
2022-10-29T08:08:45.327Z,1017.13
2022-10-29T08:09:45.304Z,1017.14
2022-10-29T08:10:45.295Z,1017.10
2022-10-29T08:12:45.273Z,1017.16
2022-10-29T08:13:45.274Z,1017.18
2022-10-29T08:14:45.252Z,1017.16
2022-10-29T08:15:45.238Z,1017.14
2022-10-29T08:16:45.231Z,1017.12
2022-10-29T08:17:45.219Z,1017.10
2022-10-29T08:18:45.216Z,1017.08
2022-10-29T08:19:45.198Z,1017.09
2022-10-29T08:20:45.186Z,1017.10
2022-10-29T08:21:45.192Z,1017.12
2022-10-29T08:22:45.165Z,1017.12
2022-10-29T08:23:45.169Z,1017.19
2022-10-29T08:24:45.144Z,1017.18
2022-10-29T08:25:45.135Z,1017.19
2022-10-29T08:26:45.137Z,1017.18
2022-10-29T08:27:45.192Z,1017.19
2022-10-29T08:28:45.109Z,1017.18
2022-10-29T08:29:45.089Z,1017.17
2022-10-29T08:30:45.101Z,1017.12
2022-10-29T08:31:45.084Z,1017.14
2022-10-29T08:32:45.055Z,1017.15
2022-10-29T08:33:45.057Z,1017.18
2022-10-29T08:34:45.033Z,1017.19
2022-10-29T08:35:45.025Z,1017.20
2022-10-29T08:36:45.012Z,1017.15
2022-10-29T08:37:45.018Z,1017.16
2022-10-29T08:38:45.000Z,1017.13
2022-10-29T08:39:44.986Z,1017.15
2022-10-29T08:40:44.967Z,1017.13
2022-10-29T08:41:44.959Z,1017.18
2022-10-29T08:42:44.951Z,1017.19
2022-10-29T08:43:47.518Z,1017.24
2022-10-29T08:44:44.925Z,1017.26
2022-10-29T08:45:44.915Z,1017.23
2022-10-29T08:46:44.907Z,1017.27
2022-10-29T08:47:44.894Z,1017.23
2022-10-29T08:48:44.890Z,1017.23
2022-10-29T08:49:44.872Z,1017.25
2022-10-29T08:50:44.863Z,1017.23
2022-10-29T08:51:44.850Z,1017.25
2022-10-29T08:52:53.194Z,1017.18
2022-10-29T08:53:54.333Z,1017.20
2022-10-29T08:54:45.816Z,1017.16
2022-10-29T08:55:44.807Z,1017.19
2022-10-29T08:56:44.801Z,1017.26
2022-10-29T08:57:44.787Z,1017.24
2022-10-29T08:58:44.787Z,1017.23
2022-10-29T08:59:44.763Z,1017.24
2022-10-29T09:00:44.825Z,1017.20
2022-10-29T09:01:44.827Z,1017.19
2022-10-29T09:02:44.731Z,1017.22
2022-10-29T09:03:44.732Z,1017.21
2022-10-29T09:04:44.709Z,1017.21
2022-10-29T09:05:44.700Z,1017.27
2022-10-29T09:06:44.689Z,1017.23
2022-10-29T09:07:44.681Z,1017.26
2022-10-29T09:08:44.681Z,1017.26
2022-10-29T09:09:44.675Z,1017.30
2022-10-29T09:10:44.646Z,1017.28
2022-10-29T09:11:44.638Z,1017.23
2022-10-29T09:12:44.625Z,1017.24
2022-10-29T09:13:44.624Z,1017.23
2022-10-29T09:14:44.604Z,1017.26
2022-10-29T09:15:44.594Z,1017.24
2022-10-29T09:16:44.601Z,1017.25
2022-10-29T09:17:44.576Z,1017.25
2022-10-29T09:18:44.570Z,1017.23
2022-10-29T09:19:44.552Z,1017.19
2022-10-29T09:20:44.541Z,1017.23
2022-10-29T09:21:44.531Z,1017.32
2022-10-29T09:22:44.517Z,1017.31
2022-10-29T09:23:44.517Z,1017.26
2022-10-29T09:24:44.497Z,1017.27
2022-10-29T09:25:44.505Z,1017.30
2022-10-29T09:26:44.482Z,1017.28
2022-10-29T09:27:44.467Z,1017.32
2022-10-29T09:28:44.471Z,1017.33
2022-10-29T09:29:44.445Z,1017.33
2022-10-29T09:30:44.433Z,1017.31
2022-10-29T09:31:44.428Z,1017.39
2022-10-29T09:32:44.459Z,1017.39
2022-10-29T09:33:44.415Z,1017.41
2022-10-29T09:34:44.393Z,1017.35
2022-10-29T09:35:44.384Z,1017.34
2022-10-29T09:36:44.371Z,1017.32
2022-10-29T09:37:44.363Z,1017.31
2022-10-29T09:38:44.363Z,1017.32
2022-10-29T09:39:44.364Z,1017.29
2022-10-29T09:40:44.333Z,1017.22
2022-10-29T09:41:44.336Z,1017.26
2022-10-29T09:42:44.306Z,1017.26
2022-10-29T09:43:44.310Z,1017.23
2022-10-29T09:44:44.287Z,1017.28
2022-10-29T09:45:44.278Z,1017.27
2022-10-29T09:46:44.265Z,1017.29
2022-10-29T09:47:44.258Z,1017.29
2022-10-29T09:48:44.268Z,1017.21
2022-10-29T09:49:44.241Z,1017.19
2022-10-29T09:50:44.224Z,1017.17
2022-10-29T09:51:44.215Z,1017.23
2022-10-29T09:52:44.219Z,1017.19
2022-10-29T09:53:44.218Z,1017.16
2022-10-29T09:54:44.183Z,1017.16
2022-10-29T09:55:44.175Z,1017.18
2022-10-29T09:56:44.160Z,1017.17
2022-10-29T09:57:44.181Z,1017.14
2022-10-29T09:58:44.142Z,1017.13
2022-10-29T09:59:44.133Z,1017.10
2022-10-29T10:00:44.125Z,1017.07
2022-10-29T10:01:44.224Z,1017.05
2022-10-29T10:02:44.159Z,1017.04
2022-10-29T10:03:44.091Z,1017.10
2022-10-29T10:04:44.077Z,1017.09
2022-10-29T10:05:44.069Z,1017.10
2022-10-29T10:06:44.056Z,1017.04
2022-10-29T10:07:44.060Z,1017.04
2022-10-29T10:08:44.033Z,1017.03
2022-10-29T10:09:44.024Z,1017.03
2022-10-29T10:10:44.012Z,1017.02
2022-10-29T10:11:44.001Z,1017.10
2022-10-29T10:12:44.004Z,1017.08
2022-10-29T10:13:44.002Z,1017.07
2022-10-29T10:14:43.970Z,1017.04
2022-10-29T10:15:43.959Z,1017.01
2022-10-29T10:16:43.946Z,1017.05
2022-10-29T10:17:43.956Z,1017.04
2022-10-29T10:19:43.917Z,1017.00
2022-10-29T10:20:43.903Z,1017.00
2022-10-29T10:21:43.895Z,1016.94
2022-10-29T10:22:43.902Z,1016.99
2022-10-29T10:23:43.874Z,1016.96
2022-10-29T10:24:43.862Z,1016.97
2022-10-29T10:25:43.919Z,1016.97
2022-10-29T10:26:43.839Z,1016.92
2022-10-29T10:27:43.849Z,1016.95
2022-10-29T10:28:43.822Z,1016.93
2022-10-29T10:29:43.823Z,1016.92
2022-10-29T10:30:43.793Z,1016.84
2022-10-29T10:31:43.790Z,1016.77
2022-10-29T10:32:43.782Z,1016.79
2022-10-29T10:33:43.770Z,1016.74
2022-10-29T10:34:43.757Z,1016.77
2022-10-29T10:35:43.741Z,1016.76
2022-10-29T10:36:43.733Z,1016.69
2022-10-29T10:37:43.730Z,1016.69
2022-10-29T10:38:43.705Z,1016.71
2022-10-29T10:39:43.697Z,1016.72
2022-10-29T10:40:43.685Z,1016.73
2022-10-29T10:41:43.675Z,1016.74
2022-10-29T10:42:43.675Z,1016.68
2022-10-29T10:43:43.660Z,1016.69
2022-10-29T10:44:43.640Z,1016.69
2022-10-29T10:45:43.651Z,1016.71
2022-10-29T10:46:43.617Z,1016.75
2022-10-29T10:47:43.623Z,1016.76
2022-10-29T10:48:43.596Z,1016.80
2022-10-29T10:49:43.587Z,1016.78
2022-10-29T10:50:43.575Z,1016.81
2022-10-29T10:51:43.566Z,1016.81
2022-10-29T10:52:43.552Z,1016.84
2022-10-29T10:53:43.552Z,1016.83
2022-10-29T10:54:43.575Z,1016.85
2022-10-29T10:55:43.522Z,1016.85
2022-10-29T10:56:43.517Z,1016.87
2022-10-29T10:57:43.499Z,1016.84
2022-10-29T10:58:43.494Z,1016.82
2022-10-29T10:59:43.475Z,1016.86
2022-10-29T11:00:43.518Z,1016.88
2022-10-29T11:01:43.640Z,1016.90
2022-10-29T11:02:43.443Z,1016.89
2022-10-29T11:03:43.449Z,1016.89
2022-10-29T11:04:43.431Z,1016.87
2022-10-29T11:05:43.408Z,1016.82
2022-10-29T11:06:43.397Z,1016.85
2022-10-29T11:07:43.387Z,1016.81
2022-10-29T11:08:43.384Z,1016.77
2022-10-29T11:09:43.364Z,1016.79
2022-10-29T11:10:43.356Z,1016.81
2022-10-29T11:11:43.344Z,1016.78
2022-10-29T11:12:43.331Z,1016.79
2022-10-29T11:13:43.409Z,1016.77
2022-10-29T11:14:43.310Z,1016.74
2022-10-29T11:15:43.301Z,1016.71
2022-10-29T11:16:43.284Z,1016.65
2022-10-29T11:17:43.291Z,1016.64
2022-10-29T11:18:43.276Z,1016.61
2022-10-29T11:19:43.278Z,1016.58
2022-10-29T11:20:43.240Z,1016.57
2022-10-29T11:21:43.264Z,1016.59
2022-10-29T11:22:43.234Z,1016.56
2022-10-29T11:23:43.207Z,1016.56
2022-10-29T11:24:43.194Z,1016.52
2022-10-29T11:25:43.186Z,1016.49
2022-10-29T11:26:43.172Z,1016.49
2022-10-29T11:27:43.172Z,1016.48
2022-10-29T11:28:43.151Z,1016.39
2022-10-29T11:29:48.983Z,1016.41
2022-10-29T11:30:44.156Z,1016.39
2022-10-29T11:31:43.121Z,1016.36
2022-10-29T11:32:43.119Z,1016.38
2022-10-29T11:33:43.117Z,1016.37
2022-10-29T11:34:43.085Z,1016.32
2022-10-29T11:35:43.083Z,1016.30
2022-10-29T11:36:43.060Z,1016.29
2022-10-29T11:37:43.068Z,1016.30
2022-10-29T11:38:43.046Z,1016.27
2022-10-29T11:39:43.028Z,1016.29
2022-10-29T11:40:43.017Z,1016.24
2022-10-29T11:41:43.006Z,1016.21
2022-10-29T11:42:43.004Z,1016.24
2022-10-29T11:43:42.988Z,1016.30
2022-10-29T11:44:42.971Z,1016.25
2022-10-29T11:45:42.964Z,1016.29
2022-10-29T11:46:42.948Z,1016.31
2022-10-29T11:47:42.952Z,1016.26
2022-10-29T11:48:42.928Z,1016.28
2022-10-29T11:49:42.948Z,1016.26
2022-10-29T11:50:42.907Z,1016.22
2022-10-29T11:51:42.895Z,1016.21
2022-10-29T11:52:42.883Z,1016.23
2022-10-29T11:53:42.906Z,1016.22
2022-10-29T11:54:42.873Z,1016.22
2022-10-29T11:55:42.851Z,1016.19
2022-10-29T11:56:42.839Z,1016.16
2022-10-29T11:57:42.828Z,1016.13
2022-10-29T11:58:42.825Z,1016.12
2022-10-29T11:59:42.839Z,1016.09
2022-10-29T12:00:42.798Z,1016.07
2022-10-29T12:01:42.836Z,1016.02
2022-10-29T12:02:42.773Z,1016.04
2022-10-29T12:03:42.838Z,1016.03
2022-10-29T12:04:42.751Z,1016.03
2022-10-29T12:05:42.768Z,1016.05
2022-10-29T12:06:42.729Z,1016.06
2022-10-29T12:07:42.724Z,1016.07
2022-10-29T12:08:42.713Z,1016.06
2022-10-29T12:09:42.699Z,1016.02
2022-10-29T12:10:42.682Z,1016.02
2022-10-29T12:11:43.191Z,1016.01
2022-10-29T12:12:42.663Z,1015.98